Time;durP1;ratioP1;P1;durP2;ratioP2;P2;SDS_P1;SDS_P2;PMS_P1;PMS_P2;Temp;Humidity;BMP_temperature;BMP_pressure;BME280_temperature;BME280_humidity;BME280_pressure;Samples;Min_cycle;Max_cycle;Signal;HPM_P1;HPM_P2
2022/06/13 00:00:49;;;;;;;11.95;4.03;;;13.40;99.90;;;;;;5078860;28;20055;-80
2022/06/13 00:03:15;;;;;;;9.05;3.33;;;13.40;99.90;;;;;;5084839;28;20647;-80
2022/06/13 00:05:40;;;;;;;8.23;3.53;;;13.40;99.90;;;;;;5083164;28;20518;-81
2022/06/13 00:08:06;;;;;;;9.73;4.40;;;13.40;99.90;;;;;;5081116;28;20048;-80
2022/06/13 00:10:32;;;;;;;11.43;4.03;;;13.50;99.90;;;;;;5077463;28;20394;-81
2022/06/13 00:12:57;;;;;;;12.65;3.55;;;13.40;99.90;;;;;;5081359;28;20398;-80
2022/06/13 00:15:23;;;;;;;7.88;3.60;;;13.50;99.90;;;;;;5082537;28;20221;-81
2022/06/13 00:17:48;;;;;;;11.98;3.83;;;13.50;99.90;;;;;;5081282;28;20542;-81
2022/06/13 00:20:14;;;;;;;10.07;3.78;;;13.40;99.90;;;;;;5083665;28;20118;-81
2022/06/13 00:22:40;;;;;;;8.70;3.55;;;13.40;99.90;;;;;;5082947;28;20036;-81
2022/06/13 00:25:06;;;;;;;8.35;3.42;;;13.40;99.90;;;;;;5083921;28;20125;-81
2022/06/13 00:27:33;;;;;;;9.10;4.25;;;13.30;99.90;;;;;;5084751;28;20136;-81
2022/06/13 00:29:58;;;;;;;8.45;3.97;;;13.30;99.90;;;;;;5083925;28;20072;-81
2022/06/13 00:32:24;;;;;;;12.68;4.30;;;13.30;99.90;;;;;;5082557;28;20047;-80
2022/06/13 00:34:50;;;;;;;13.88;5.00;;;13.30;99.90;;;;;;5082312;28;20072;-81
2022/06/13 00:37:16;;;;;;;11.68;4.32;;;13.30;99.90;;;;;;5081762;28;20065;-80
2022/06/13 00:39:42;;;;;;;9.75;3.50;;;13.30;99.90;;;;;;5064290;28;20063;-81
2022/06/13 00:42:07;;;;;;;8.82;3.85;;;13.30;99.90;;;;;;5080734;28;20055;-81
2022/06/13 00:44:36;;;;;;;11.85;3.45;;;13.20;99.90;;;;;;5083322;28;20626;-81
2022/06/13 00:47:03;;;;;;;8.77;4.25;;;13.30;99.90;;;;;;5080056;28;20509;-80
2022/06/13 00:49:41;;;;;;;6.63;3.75;;;13.30;99.90;;;;;;5085758;28;20044;-81
2022/06/13 00:52:30;;;;;;;8.40;4.60;;;13.30;99.90;;;;;;5083644;28;20111;-81
2022/06/13 00:54:56;;;;;;;11.48;4.97;;;13.40;99.90;;;;;;5083081;28;20156;-80
2022/06/13 00:57:28;;;;;;;8.77;3.38;;;13.30;99.90;;;;;;5082832;28;20090;-81
2022/06/13 01:00:00;;;;;;;7.63;4.20;;;13.30;99.90;;;;;;5081183;28;20105;-80
2022/06/13 01:02:27;;;;;;;12.88;3.63;;;13.30;99.90;;;;;;5079525;28;20113;-81
2022/06/13 01:04:53;;;;;;;8.55;3.97;;;13.30;99.90;;;;;;5081005;28;20045;-81
2022/06/13 01:07:20;;;;;;;10.77;4.43;;;13.30;99.90;;;;;;5080714;28;20040;-81
2022/06/13 01:12:31;;;;;;;7.83;4.40;;;13.20;99.90;;;;;;5080835;28;20040;-80
2022/06/13 01:15:14;;;;;;;15.93;5.57;;;13.20;99.90;;;;;;5084131;28;20032;-81
2022/06/13 01:17:42;;;;;;;13.00;4.65;;;13.20;99.90;;;;;;5084105;28;20040;-81
2022/06/13 01:20:39;;;;;;;9.88;3.28;;;13.10;99.90;;;;;;5083487;28;20099;-81
2022/06/13 01:23:24;;;;;;;11.65;3.30;;;13.20;99.90;;;;;;5067209;28;20064;-80
2022/06/13 01:26:24;;;;;;;10.77;3.08;;;13.20;99.90;;;;;;5080925;28;20056;-81
2022/06/13 01:29:20;;;;;;;10.32;3.58;;;13.20;99.90;;;;;;5080735;28;20059;-81
2022/06/13 01:31:54;;;;;;;14.68;3.90;;;13.20;99.90;;;;;;5077594;28;20047;-81
2022/06/13 01:34:35;;;;;;;9.45;3.53;;;13.20;99.90;;;;;;5077908;28;20090;-81
2022/06/13 01:37:19;;;;;;;12.80;4.38;;;13.20;99.90;;;;;;5081247;28;20039;-80
2022/06/13 01:40:25;;;;;;;10.65;4.03;;;13.20;99.90;;;;;;5065635;28;20947;-81
2022/06/13 01:43:10;;;;;;;10.10;3.53;;;13.20;99.90;;;;;;5063455;28;20056;-82
2022/06/13 01:46:05;;;;;;;12.05;4.07;;;13.20;99.90;;;;;;5080742;28;20051;-81
2022/06/13 01:49:04;;;;;;;9.65;4.07;;;13.20;99.90;;;;;;5074068;28;20052;-83
2022/06/13 01:51:39;;;;;;;10.45;3.78;;;13.20;99.90;;;;;;5082203;28;20039;-81
2022/06/13 01:54:37;;;;;;;10.60;3.28;;;13.20;99.90;;;;;;5080095;28;20028;-81
2022/06/13 01:57:36;;;;;;;7.45;4.25;;;13.20;99.90;;;;;;5081441;28;20487;-80
2022/06/13 02:00:10;;;;;;;10.13;3.50;;;13.20;99.90;;;;;;5071837;28;20145;-80
2022/06/13 02:02:42;;;;;;;14.43;3.85;;;13.20;99.90;;;;;;5060355;28;20445;-80
2022/06/13 02:05:38;;;;;;;17.00;4.60;;;13.10;99.90;;;;;;5082578;28;20116;-80
2022/06/13 02:08:17;;;;;;;12.03;3.70;;;13.10;99.90;;;;;;5084634;28;20055;-80
2022/06/13 02:10:54;;;;;;;8.52;3.03;;;13.10;99.90;;;;;;5084627;28;20302;-81
2022/06/13 02:13:43;;;;;;;10.20;4.25;;;13.10;99.90;;;;;;5068488;28;20047;-80
2022/06/13 02:16:16;;;;;;;9.65;4.38;;;13.10;99.90;;;;;;5079953;28;20044;-81
2022/06/13 02:19:05;;;;;;;8.32;4.03;;;13.10;99.90;;;;;;5081600;28;20036;-80
2022/06/13 02:21:40;;;;;;;9.57;4.00;;;13.10;99.90;;;;;;5082962;28;20093;-81
2022/06/13 02:24:11;;;;;;;14.52;4.30;;;13.20;99.90;;;;;;5065184;28;20044;-81
2022/06/13 02:26:40;;;;;;;9.60;3.85;;;13.10;99.90;;;;;;5083421;28;20036;-81
2022/06/13 02:29:16;;;;;;;7.60;3.80;;;13.20;99.90;;;;;;5079412;28;20080;-80
2022/06/13 02:32:00;;;;;;;8.30;3.75;;;13.10;99.90;;;;;;5078537;28;20045;-81
2022/06/13 02:34:39;;;;;;;10.93;4.43;;;13.10;99.90;;;;;;5078444;28;20098;-84
2022/06/13 02:37:30;;;;;;;10.60;4.70;;;13.10;99.90;;;;;;5081821;28;20040;-80
2022/06/13 02:40:22;;;;;;;11.15;4.82;;;13.00;99.90;;;;;;5080455;28;20499;-81
2022/06/13 02:43:00;;;;;;;10.57;5.78;;;13.00;99.90;;;;;;5064014;28;20066;-81
2022/06/13 02:45:32;;;;;;;12.93;4.65;;;12.90;99.90;;;;;;5067298;28;20040;-81
2022/06/13 02:48:07;;;;;;;12.88;5.47;;;12.90;99.90;;;;;;5065473;28;20114;-81
2022/06/13 02:50:47;;;;;;;12.25;4.35;;;12.90;99.90;;;;;;5079529;28;20036;-81
2022/06/13 02:53:22;;;;;;;9.55;4.43;;;12.90;99.90;;;;;;5061805;28;20032;-81
2022/06/13 02:55:59;;;;;;;;;;;12.90;99.90;;;;;;5076182;28;20039;-81
2022/06/13 02:58:40;;;;;;;13.07;5.50;;;12.90;99.90;;;;;;5064982;28;19974;-82
2022/06/13 03:01:09;;;;;;;11.23;5.18;;;12.90;99.90;;;;;;5080604;28;20036;-81
2022/06/13 03:03:53;;;;;;;9.50;4.63;;;12.90;99.90;;;;;;5075796;28;20056;-81
2022/06/13 03:06:26;;;;;;;13.43;5.72;;;12.90;99.90;;;;;;5077187;28;20043;-82
2022/06/13 03:09:23;;;;;;;11.07;4.50;;;12.90;99.90;;;;;;5079096;28;20055;-81
2022/06/13 03:12:00;;;;;;;10.90;3.90;;;13.00;99.90;;;;;;5080303;28;20050;-81
2022/06/13 03:14:40;;;;;;;12.55;4.85;;;13.00;99.90;;;;;;5098193;28;20470;-82
2022/06/13 03:17:17;;;;;;;8.05;4.82;;;13.10;99.90;;;;;;5085350;28;20039;-81
2022/06/13 03:19:52;;;;;;;14.73;5.72;;;13.10;99.90;;;;;;5067319;28;20387;-81
2022/06/13 03:22:24;;;;;;;9.30;5.00;;;13.10;99.90;;;;;;5085400;28;20423;-81
2022/06/13 03:25:44;;;;;;;9.55;5.15;;;13.10;99.90;;;;;;5082434;28;20027;-81
2022/06/13 03:28:26;;;;;;;11.43;4.63;;;13.20;99.90;;;;;;5046257;28;20512;-81
2022/06/13 03:30:58;;;;;;;15.52;5.68;;;13.10;99.90;;;;;;5063235;28;20048;-81
2022/06/13 03:33:42;;;;;;;14.20;7.53;;;13.10;99.90;;;;;;5070867;28;20048;-81
2022/06/13 03:36:15;;;;;;;11.40;4.88;;;13.10;99.90;;;;;;5082786;28;20034;-81
2022/06/13 03:38:52;;;;;;;11.35;5.72;;;13.10;99.90;;;;;;5086397;28;20082;-81
2022/06/13 03:41:21;;;;;;;14.02;6.00;;;13.20;99.90;;;;;;5080929;28;20051;-81
2022/06/13 03:44:03;;;;;;;12.93;5.43;;;13.10;99.90;;;;;;5068457;28;20032;-81
2022/06/13 03:46:53;;;;;;;9.85;5.53;;;13.10;99.90;;;;;;5066103;28;20059;-82
2022/06/13 03:49:25;;;;;;;14.30;5.88;;;13.20;99.90;;;;;;5081543;28;20040;-84
2022/06/13 03:51:54;;;;;;;10.57;5.22;;;13.20;99.90;;;;;;5083492;28;20483;-81
2022/06/13 03:54:52;;;;;;;12.70;5.25;;;13.30;99.90;;;;;;5084838;28;20052;-82
2022/06/13 03:57:31;;;;;;;19.95;6.47;;;13.30;99.90;;;;;;5062301;28;20046;-82
2022/06/13 04:00:03;;;;;;;12.38;4.55;;;13.30;99.90;;;;;;5079691;28;20077;-79
2022/06/13 04:02:32;;;;;;;12.45;6.10;;;13.30;99.90;;;;;;5082709;28;20040;-82
2022/06/13 04:04:57;;;;;;;12.57;6.13;;;13.40;99.90;;;;;;5079419;28;20036;-82
2022/06/13 04:07:26;;;;;;;10.43;5.30;;;13.30;99.90;;;;;;5085304;28;20083;-83
2022/06/13 04:09:57;;;;;;;13.07;6.32;;;13.40;99.90;;;;;;5084241;28;20048;-82
2022/06/13 04:12:58;;;;;;;12.70;5.95;;;13.50;99.90;;;;;;5068580;28;20545;-82
2022/06/13 04:15:56;;;;;;;11.45;4.90;;;13.50;99.90;;;;;;5079793;28;20042;-81
2022/06/13 04:18:44;;;;;;;10.13;4.95;;;13.60;99.90;;;;;;5081097;28;20044;-81
2022/06/13 04:21:20;;;;;;;12.48;5.30;;;13.70;99.90;;;;;;5082477;28;20626;-81
2022/06/13 04:24:03;;;;;;;13.02;4.95;;;13.70;99.90;;;;;;5079536;28;20037;-82
2022/06/13 04:26:45;;;;;;;11.77;4.93;;;13.80;99.90;;;;;;5081004;28;20111;-82
2022/06/13 04:29:34;;;;;;;11.38;4.55;;;13.80;99.90;;;;;;5075276;28;20105;-81
2022/06/13 04:32:05;;;;;;;11.25;4.32;;;13.80;99.90;;;;;;5076636;28;20128;-82
2022/06/13 04:34:38;;;;;;;8.95;4.28;;;13.80;99.90;;;;;;5081668;28;20060;-83
2022/06/13 04:37:05;;;;;;;11.13;4.70;;;13.90;99.90;;;;;;5077987;28;20099;-82
2022/06/13 04:39:34;;;;;;;13.45;4.38;;;13.90;99.90;;;;;;5079544;28;20045;-81
2022/06/13 04:42:01;;;;;;;10.90;4.68;;;13.90;99.90;;;;;;5078871;28;20041;-82
2022/06/13 04:44:31;;;;;;;7.45;3.28;;;13.80;99.90;;;;;;5078141;28;20089;-81
2022/06/13 04:46:58;;;;;;;9.60;3.58;;;13.90;99.90;;;;;;5074451;28;20502;-82
2022/06/13 04:49:31;;;;;;;11.25;3.50;;;13.90;99.90;;;;;;5075160;28;20036;-82
2022/06/13 04:52:01;;;;;;;8.52;4.03;;;14.00;99.90;;;;;;5076812;28;20399;-81
2022/06/13 04:54:42;;;;;;;14.10;3.88;;;13.90;99.90;;;;;;5060300;28;20036;-82
2022/06/13 04:57:15;;;;;;;6.05;2.55;;;14.00;99.90;;;;;;5078137;28;20503;-82
2022/06/13 04:59:42;;;;;;;8.38;3.20;;;14.00;99.90;;;;;;5077179;28;20040;-82
2022/06/13 05:02:23;;;;;;;8.10;4.38;;;14.10;99.90;;;;;;5080746;28;20054;-83
2022/06/13 05:04:49;;;;;;;8.18;2.92;;;14.20;99.90;;;;;;5079383;28;20093;-82
2022/06/13 05:07:18;;;;;;;6.05;2.33;;;14.30;99.90;;;;;;5080838;28;20053;-82
2022/06/13 05:10:00;;;;;;;11.13;3.33;;;14.30;99.90;;;;;;5063118;28;20102;-82
2022/06/13 05:12:40;;;;;;;10.90;3.97;;;14.30;99.90;;;;;;5080740;28;20041;-83
2022/06/13 05:15:29;;;;;;;6.40;2.28;;;14.40;99.90;;;;;;5058276;28;20124;-82
2022/06/13 05:18:33;;;;;;;7.57;2.55;;;14.40;99.90;;;;;;5076023;28;20067;-82
2022/06/13 05:21:19;;;;;;;6.10;2.58;;;14.50;99.90;;;;;;5055522;28;20045;-84
2022/06/13 05:24:10;;;;;;;8.50;1.92;;;14.50;99.90;;;;;;5055266;28;20041;-82
2022/06/13 05:26:35;;;;;;;9.43;2.28;;;14.60;99.90;;;;;;5059706;28;20048;-82
2022/06/13 05:29:01;;;;;;;5.18;1.27;;;14.70;99.90;;;;;;5061252;28;20029;-82
2022/06/13 05:31:28;;;;;;;4.25;1.25;;;14.80;99.90;;;;;;5060794;28;20047;-83
2022/06/13 05:33:54;;;;;;;5.45;1.08;;;14.90;99.90;;;;;;5061019;28;20478;-84
2022/06/13 05:36:23;;;;;;;7.10;1.70;;;15.00;99.90;;;;;;5053434;28;20040;-82
2022/06/13 05:38:55;;;;;;;5.82;0.85;;;15.20;99.90;;;;;;5076713;28;20098;-82
2022/06/13 05:41:21;;;;;;;5.10;1.25;;;15.30;99.90;;;;;;5080336;28;20052;-82
2022/06/13 05:43:46;;;;;;;5.20;0.80;;;15.30;99.90;;;;;;5078580;28;20080;-82
2022/06/13 05:46:17;;;;;;;6.15;0.82;;;15.30;99.90;;;;;;5078344;28;20040;-80
2022/06/13 05:48:43;;;;;;;2.88;0.63;;;15.20;99.90;;;;;;5077540;28;20038;-82
2022/06/13 05:51:08;;;;;;;4.15;0.50;;;15.10;99.90;;;;;;5074814;28;20119;-85
2022/06/13 05:53:34;;;;;;;4.65;0.85;;;15.10;99.90;;;;;;5072122;28;20450;-84
2022/06/13 05:56:02;;;;;;;2.90;0.70;;;14.90;99.90;;;;;;5055203;28;20036;-85
2022/06/13 05:58:27;;;;;;;3.50;0.55;;;14.80;99.90;;;;;;5072034;28;20071;-84
2022/06/13 06:00:58;;;;;;;3.20;0.70;;;14.70;99.90;;;;;;5055327;28;20071;-84
2022/06/13 06:03:25;;;;;;;3.13;1.08;;;14.60;99.90;;;;;;5072181;28;20498;-85
2022/06/13 06:05:52;;;;;;;3.47;0.38;;;14.60;99.90;;;;;;5071615;28;20087;-84
2022/06/13 06:08:23;;;;;;;1.77;0.40;;;14.50;99.90;;;;;;5071717;28;20040;-85
2022/06/13 06:10:52;;;;;;;4.68;0.40;;;14.40;99.90;;;;;;5055546;28;20132;-85
2022/06/13 06:13:18;;;;;;;4.97;0.57;;;14.30;99.90;;;;;;5072081;28;20036;-85
2022/06/13 06:15:46;;;;;;;2.47;0.32;;;14.30;99.90;;;;;;5071480;28;20476;-84
2022/06/13 06:18:12;;;;;;;2.40;0.85;;;14.20;99.90;;;;;;5070933;28;20040;-85
2022/06/13 06:20:39;;;;;;;3.85;0.57;;;14.20;99.90;;;;;;5072245;28;20090;-85
2022/06/13 06:23:05;;;;;;;2.80;0.73;;;14.10;99.90;;;;;;5071921;28;20036;-82
2022/06/13 06:25:32;;;;;;;2.58;0.47;;;14.30;99.90;;;;;;5073739;28;20119;-84
2022/06/13 06:27:57;;;;;;;4.13;0.50;;;14.70;99.90;;;;;;5056788;28;20634;-85
2022/06/13 06:30:23;;;;;;;3.08;0.65;;;15.00;99.90;;;;;;5073319;28;20044;-84
2022/06/13 06:32:48;;;;;;;4.95;0.30;;;15.30;99.90;;;;;;5058377;28;20038;-84
2022/06/13 06:35:14;;;;;;;5.22;0.38;;;15.60;99.90;;;;;;5077149;28;20086;-84
2022/06/13 06:37:47;;;;;;;2.40;0.30;;;16.00;99.90;;;;;;5061373;28;20403;-85
2022/06/13 06:40:15;;;;;;;3.35;0.40;;;16.30;99.90;;;;;;5076037;28;20052;-84
2022/06/13 06:42:40;;;;;;;2.28;0.43;;;16.50;99.90;;;;;;5076161;28;20048;-86
2022/06/13 06:45:07;;;;;;;2.38;0.20;;;16.80;99.90;;;;;;5075662;28;20032;-85
2022/06/13 06:47:33;;;;;;;3.13;0.52;;;17.20;99.90;;;;;;5074643;28;20167;-86
2022/06/13 06:49:58;;;;;;;4.10;0.20;;;17.40;99.90;;;;;;5076009;28;20055;-82
2022/06/13 06:52:24;;;;;;;4.38;0.28;;;17.40;99.90;;;;;;5072993;28;20051;-85
2022/06/13 07:00:19;;;;;;;2.00;0.20;;;17.50;99.90;;;;;;5079457;28;20211;-84
2022/06/13 07:02:45;;;;;;;2.22;0.20;;;17.60;99.90;;;;;;5078552;28;20028;-82
2022/06/13 07:05:12;;;;;;;2.13;0.20;;;17.70;99.90;;;;;;5061797;28;20104;-82
2022/06/13 07:07:37;;;;;;;3.22;0.20;;;17.50;99.90;;;;;;5078153;28;20040;-83
2022/06/13 07:10:04;;;;;;;3.05;0.20;;;17.20;99.90;;;;;;5079272;28;20067;-82
2022/06/13 07:12:29;;;;;;;2.55;0.30;;;17.00;99.90;;;;;;5078032;28;20094;-81
2022/06/13 07:14:55;;;;;;;1.38;0.20;;;16.80;99.90;;;;;;5079015;28;20072;-83
2022/06/13 07:17:22;;;;;;;4.70;0.43;;;16.80;99.90;;;;;;5077077;28;20094;-84
2022/06/13 07:19:47;;;;;;;3.22;0.30;;;16.90;99.90;;;;;;5054160;28;20557;-85
2022/06/13 07:22:19;;;;;;;2.05;0.50;;;16.80;99.90;;;;;;5070788;28;20040;-86
2022/06/13 07:24:46;;;;;;;2.08;0.40;;;16.70;99.90;;;;;;5070343;28;20040;-85
2022/06/13 07:27:13;;;;;;;9.73;0.85;;;16.60;99.90;;;;;;5054629;28;20063;-85
2022/06/13 07:29:39;;;;;;;2.75;0.88;;;16.40;99.90;;;;;;5070045;28;20046;-86
2022/06/13 07:32:13;;;;;;;2.03;0.35;;;16.20;99.90;;;;;;5053834;28;20041;-85
2022/06/13 07:34:42;;;;;;;2.17;0.30;;;16.20;99.90;;;;;;5053794;28;20075;-84
2022/06/13 07:37:11;;;;;;;2.58;0.55;;;16.50;99.90;;;;;;5070822;28;20079;-85
2022/06/13 07:39:37;;;;;;;2.42;1.05;;;16.70;99.90;;;;;;5071067;28;20079;-84
2022/06/13 07:42:04;;;;;;;1.38;0.50;;;16.60;99.90;;;;;;5071209;28;20072;-84
2022/06/13 07:44:33;;;;;;;1.83;0.30;;;16.60;99.90;;;;;;5072225;28;20041;-83
2022/06/13 07:46:59;;;;;;;1.05;0.30;;;16.80;99.90;;;;;;5072166;28;20109;-82
2022/06/13 07:49:25;;;;;;;1.10;0.28;;;17.00;99.90;;;;;;5072778;28;20380;-82
2022/06/13 07:51:51;;;;;;;2.28;0.30;;;17.10;99.90;;;;;;5074695;28;20558;-82
2022/06/13 07:54:16;;;;;;;3.30;0.60;;;17.10;99.90;;;;;;5075972;28;20096;-83
2022/06/13 07:56:42;;;;;;;2.42;0.30;;;17.30;99.90;;;;;;5075518;28;20501;-82
2022/06/13 07:59:15;;;;;;;2.72;0.30;;;17.40;99.90;;;;;;5076559;28;20084;-82
2022/06/13 08:01:41;;;;;;;1.13;0.55;;;17.60;99.90;;;;;;5075526;28;20094;-82
2022/06/13 08:04:06;;;;;;;3.47;0.30;;;17.50;99.90;;;;;;5078361;28;20047;-82
2022/06/13 08:06:32;;;;;;;2.63;0.57;;;17.50;99.90;;;;;;5080099;28;20051;-82
2022/06/13 08:08:58;;;;;;;3.20;0.20;;;17.70;99.90;;;;;;5079840;28;20040;-82
2022/06/13 08:11:31;;;;;;;2.60;0.30;;;18.00;99.90;;;;;;5079552;28;20044;-82
2022/06/13 08:13:57;;;;;;;1.88;0.20;;;18.10;99.90;;;;;;5080069;28;20455;-81
2022/06/13 08:16:23;;;;;;;2.63;0.30;;;18.00;99.90;;;;;;5079303;28;20127;-82
2022/06/13 08:18:48;;;;;;;5.68;0.28;;;17.80;99.90;;;;;;5079913;28;20222;-82
2022/06/13 08:21:14;;;;;;;3.58;0.95;;;17.70;99.90;;;;;;5079302;28;20048;-82
2022/06/13 08:23:40;;;;;;;2.63;0.20;;;17.70;99.90;;;;;;5077712;28;20487;-81
2022/06/13 08:26:05;;;;;;;4.18;0.43;;;17.70;99.90;;;;;;5079911;28;20044;-81
2022/06/13 08:28:31;;;;;;;3.17;0.60;;;17.70;99.90;;;;;;5079449;28;20040;-80
2022/06/13 08:30:59;;;;;;;2.17;0.22;;;17.50;99.90;;;;;;5079833;28;20047;-80
2022/06/13 08:33:25;;;;;;;4.85;0.30;;;17.20;99.90;;;;;;5079889;28;20085;-80
2022/06/13 08:35:51;;;;;;;6.55;0.57;;;16.80;99.90;;;;;;5058141;28;20528;-81
2022/06/13 08:38:18;;;;;;;2.88;0.40;;;16.40;99.90;;;;;;5074208;28;20064;-81
2022/06/13 08:41:10;;;;;;;4.70;0.55;;;16.00;99.90;;;;;;5056370;28;20120;-82
2022/06/13 08:43:50;;;;;;;8.63;0.93;;;15.80;99.90;;;;;;5073573;28;20040;-82
2022/06/13 08:46:25;;;;;;;4.55;0.40;;;15.60;99.90;;;;;;5073895;28;20182;-83
2022/06/13 08:49:14;;;;;;;4.47;0.60;;;15.60;99.90;;;;;;5056735;28;20146;-80
2022/06/13 08:51:47;;;;;;;5.57;0.57;;;15.50;99.90;;;;;;5078112;28;20499;-80
2022/06/13 08:54:21;;;;;;;7.30;1.05;;;15.60;99.90;;;;;;5078495;28;20507;-80
2022/06/13 08:56:49;;;;;;;3.20;0.40;;;15.80;99.90;;;;;;5078890;28;20062;-81
2022/06/13 08:59:36;;;;;;;5.72;0.35;;;15.90;99.90;;;;;;5079485;28;20044;-83
2022/06/13 09:02:11;;;;;;;1.13;0.40;;;16.10;99.90;;;;;;5079056;28;20047;-83
2022/06/13 09:04:51;;;;;;;1.58;0.20;;;16.70;99.90;;;;;;5062148;28;20040;-82
2022/06/13 09:07:23;;;;;;;0.90;0.20;;;17.50;99.90;;;;;;5079843;28;20127;-82
2022/06/13 09:09:55;;;;;;;0.98;0.20;;;18.00;99.90;;;;;;5078426;28;20086;-79
2022/06/13 09:12:46;;;;;;;2.00;0.20;;;18.10;99.90;;;;;;5075255;28;20101;-79
2022/06/13 09:15:23;;;;;;;0.77;0.15;;;17.90;99.90;;;;;;5075199;28;20044;-80
2022/06/13 09:17:59;;;;;;;3.22;0.30;;;17.80;99.90;;;;;;5074509;28;20037;-79
2022/06/13 09:20:50;;;;;;;3.38;0.40;;;17.90;99.90;;;;;;5074621;28;20072;-80
2022/06/13 09:23:53;;;;;;;2.30;0.50;;;18.00;99.90;;;;;;5073735;28;20127;-80
2022/06/13 09:26:23;;;;;;;0.95;0.20;;;17.90;99.90;;;;;;5074024;28;20050;-79
2022/06/13 09:29:06;;;;;;;1.35;0.55;;;17.70;99.90;;;;;;5073673;28;20036;-79
2022/06/13 09:31:44;;;;;;;1.88;0.20;;;17.90;99.90;;;;;;5073790;28;20068;-79
2022/06/13 09:34:27;;;;;;;1.45;0.45;;;18.10;99.90;;;;;;5073811;28;20351;-79
2022/06/13 09:37:09;;;;;;;1.65;0.20;;;18.60;99.90;;;;;;5058827;28;20076;-80
2022/06/13 09:39:35;;;;;;;0.80;0.40;;;18.80;99.90;;;;;;5077228;28;20047;-80
2022/06/13 09:42:06;;;;;;;1.85;0.30;;;18.80;99.90;;;;;;5078717;28;20047;-80
2022/06/13 09:44:56;;;;;;;2.55;0.22;;;18.70;99.90;;;;;;5077698;28;20044;-80
2022/06/13 09:47:38;;;;;;;3.42;1.00;;;18.40;99.90;;;;;;5061029;28;20040;-80
2022/06/13 09:50:04;;;;;;;3.28;0.20;;;18.00;99.90;;;;;;5077697;28;20090;-80
2022/06/13 09:52:44;;;;;;;1.25;0.10;;;17.60;99.90;;;;;;5076710;28;20040;-80
2022/06/13 09:55:15;;;;;;;2.78;0.20;;;17.60;99.90;;;;;;5077193;28;20045;-80
2022/06/13 09:58:03;;;;;;;2.90;0.20;;;17.90;99.90;;;;;;5076258;28;20048;-80
2022/06/13 10:00:41;;;;;;;2.60;0.20;;;18.30;99.90;;;;;;5059183;28;20050;-81
2022/06/13 10:03:38;;;;;;;1.48;0.10;;;17.90;99.90;;;;;;5077184;28;20055;-81
2022/06/13 10:06:29;;;;;;;2.38;0.10;;;16.90;99.90;;;;;;5059253;28;20072;-83
2022/06/13 10:09:21;;;;;;;2.22;0.52;;;16.30;99.90;;;;;;5072295;28;20376;-83
2022/06/13 10:12:06;;;;;;;1.40;0.17;;;15.90;99.90;;;;;;5071679;28;20044;-82
2022/06/13 10:14:41;;;;;;;9.65;1.20;;;16.10;99.90;;;;;;5072441;28;20123;-84
2022/06/13 10:17:06;;;;;;;;;;;16.60;99.90;;;;;;5071892;28;20048;-83
2022/06/13 10:19:47;;;;;;;3.28;0.40;;;17.60;99.90;;;;;;5071924;28;19924;-84
2022/06/13 10:22:19;;;;;;;1.25;0.20;;;18.50;99.90;;;;;;5072765;28;20421;-83
2022/06/13 10:24:53;;;;;;;3.60;0.20;;;18.80;99.90;;;;;;5073033;28;20569;-83
2022/06/13 10:27:40;;;;;;;2.75;0.20;;;19.10;99.90;;;;;;5072433;28;20503;-82
2022/06/13 10:30:28;;;;;;;2.08;0.30;;;19.60;99.90;;;;;;5073908;28;20047;-82
2022/06/13 10:33:26;;;;;;;2.03;0.20;;;19.90;99.90;;;;;;5073614;28;20407;-82
2022/06/13 10:36:13;;;;;;;2.15;0.20;;;19.40;99.90;;;;;;5075248;28;20048;-82
2022/06/13 10:39:03;;;;;;;2.00;0.10;;;18.40;99.90;;;;;;5060209;28;20036;-83
2022/06/13 10:41:29;;;;;;;0.85;0.30;;;17.70;99.90;;;;;;5078755;28;20120;-83
2022/06/13 10:43:57;;;;;;;3.70;0.30;;;17.30;99.90;;;;;;5080796;28;20036;-81
2022/06/13 10:46:24;;;;;;;2.45;0.25;;;17.20;99.90;;;;;;5083406;28;20044;-81
2022/06/13 10:49:05;;;;;;;4.75;0.40;;;17.20;99.90;;;;;;5082499;28;20049;-81
2022/06/13 10:51:30;;;;;;;3.50;0.25;;;17.50;99.90;;;;;;5079086;28;20051;-80
2022/06/13 10:54:23;;;;;;;3.17;0.30;;;18.10;99.90;;;;;;5073232;28;20044;-80
2022/06/13 10:56:56;;;;;;;4.07;0.63;;;18.60;99.90;;;;;;5076687;28;20045;-82
2022/06/13 10:59:31;;;;;;;2.15;0.30;;;19.30;99.90;;;;;;5080304;28;20080;-81
2022/06/13 11:02:24;;;;;;;3.17;0.60;;;19.70;99.90;;;;;;5082263;28;20068;-81
2022/06/13 11:05:09;;;;;;;3.40;0.32;;;19.70;99.90;;;;;;5081173;28;20067;-81
2022/06/13 11:07:59;;;;;;;5.13;0.20;;;19.50;94.90;;;;;;5072734;28;20115;-79
2022/06/13 11:10:24;;;;;;;2.00;0.25;;;19.60;97.50;;;;;;5072570;28;20286;-80
2022/06/13 11:12:51;;;;;;;3.05;0.22;;;20.00;99.00;;;;;;5071942;28;20041;-80
2022/06/13 11:24:41;;;;;;;2.85;0.20;;;21.20;92.60;;;;;;5056980;28;20123;-80
2022/06/13 11:27:39;;;;;;;3.67;0.50;;;20.80;91.10;;;;;;5056738;28;20616;-80
2022/06/13 11:30:31;;;;;;;7.50;0.47;;;20.30;90.80;;;;;;5057310;28;20048;-80
2022/06/13 11:33:15;;;;;;;3.90;0.30;;;20.50;92.10;;;;;;5056696;28;20049;-81
2022/06/13 11:35:56;;;;;;;3.10;0.50;;;20.50;93.10;;;;;;5057014;28;20124;-82
2022/06/13 11:38:34;;;;;;;3.72;0.60;;;20.80;93.10;;;;;;5060052;28;20100;-81
2022/06/13 11:41:19;;;;;;;2.53;0.35;;;20.70;90.20;;;;;;5075215;28;20036;-83
2022/06/13 11:44:00;;;;;;;4.88;0.43;;;20.40;90.80;;;;;;5075851;28;20048;-81
2022/06/13 11:46:34;;;;;;;3.35;0.40;;;19.80;93.90;;;;;;5075321;28;20037;-84
2022/06/13 11:49:19;;;;;;;2.97;0.32;;;18.70;99.90;;;;;;5075113;28;20037;-84
2022/06/13 11:52:05;;;;;;;2.05;0.55;;;18.10;99.90;;;;;;5073884;28;20174;-83
2022/06/13 11:54:41;;;;;;;2.75;0.40;;;18.10;99.90;;;;;;5073428;28;20048;-85
2022/06/13 11:57:12;;;;;;;4.60;0.55;;;18.40;99.90;;;;;;5074286;28;20170;-84
2022/06/13 11:59:50;;;;;;;3.97;0.60;;;18.50;99.90;;;;;;5073996;28;20439;-83
2022/06/13 12:02:44;;;;;;;3.78;0.63;;;18.60;99.90;;;;;;5057379;28;20166;-84
2022/06/13 12:05:22;;;;;;;4.50;0.50;;;18.70;99.90;;;;;;5064560;28;20462;-84
2022/06/13 12:08:02;;;;;;;2.90;0.60;;;18.50;99.90;;;;;;5057437;28;20048;-84
2022/06/13 12:10:36;;;;;;;3.17;0.45;;;18.30;99.90;;;;;;5074335;28;20082;-83
2022/06/13 12:13:03;;;;;;;2.30;0.50;;;18.40;99.90;;;;;;5059197;28;20454;-84
2022/06/13 12:15:38;;;;;;;3.45;0.73;;;18.50;99.90;;;;;;5079923;28;20040;-82
2022/06/13 12:18:23;;;;;;;;;;;18.60;99.90;;;;;;5078953;28;20088;-82
2022/06/13 12:21:03;;;;;;;4.72;0.75;;;18.70;99.90;;;;;;5062584;28;19916;-81
2022/06/13 12:23:45;;;;;;;6.38;1.02;;;18.80;99.90;;;;;;5062427;28;20498;-81
2022/06/13 12:26:26;;;;;;;5.07;0.30;;;18.60;99.90;;;;;;5062287;28;20459;-80
2022/06/13 12:28:54;;;;;;;4.47;0.50;;;18.10;99.90;;;;;;5078219;28;20135;-81
2022/06/13 12:31:39;;;;;;;2.13;1.25;;;17.70;99.90;;;;;;5078391;28;20059;-80
2022/06/13 12:34:14;;;;;;;;;;;17.40;99.90;;;;;;5079015;28;20075;-80
2022/06/13 12:37:00;;;;;;;6.13;1.05;;;17.30;99.90;;;;;;5079880;28;19920;-81
2022/06/13 12:40:19;;;;;;;4.40;1.08;;;17.40;99.90;;;;;;5079657;28;20075;-81
2022/06/13 12:43:17;;;;;;;2.60;0.50;;;17.60;99.90;;;;;;5081182;28;20486;-79
2022/06/13 12:46:04;;;;;;;3.40;0.63;;;17.90;99.90;;;;;;5069187;28;20076;-81
2022/06/13 12:48:58;;;;;;;4.75;0.30;;;18.40;99.90;;;;;;5057255;28;20548;-82
2022/06/13 12:51:39;;;;;;;7.57;1.65;;;18.50;99.90;;;;;;5076847;28;20053;-80
2022/06/13 12:54:55;;;;;;;5.68;0.57;;;18.60;99.90;;;;;;5075829;28;20495;-79
2022/06/13 12:57:54;;;;;;;6.47;0.60;;;18.70;99.90;;;;;;5039675;28;20041;-80
2022/06/13 13:00:27;;;;;;;7.20;1.80;;;18.90;99.90;;;;;;5077241;28;20037;-81
2022/06/13 13:03:25;;;;;;;6.07;0.55;;;19.30;99.90;;;;;;5078289;28;20044;-80
2022/06/13 13:05:59;;;;;;;4.45;0.68;;;20.00;99.80;;;;;;5077544;28;20059;-82
2022/06/13 13:08:48;;;;;;;4.40;2.25;;;20.40;97.50;;;;;;5075844;28;20123;-80
2022/06/13 13:11:45;;;;;;;3.92;0.95;;;20.60;98.20;;;;;;5081234;28;20088;-81
2022/06/13 13:14:52;;;;;;;4.30;0.60;;;20.30;93.60;;;;;;5073337;28;20036;-80
2022/06/13 13:17:39;;;;;;;4.18;0.30;;;19.70;92.80;;;;;;5076887;28;20653;-80
2022/06/13 13:20:18;;;;;;;2.90;0.40;;;19.30;95.20;;;;;;5077968;28;20048;-80
2022/06/13 13:23:20;;;;;;;1.90;0.30;;;19.20;95.20;;;;;;5079266;28;20398;-80
2022/06/13 13:25:59;;;;;;;3.92;0.30;;;19.00;94.20;;;;;;5075484;28;20058;-81
2022/06/13 13:29:14;;;;;;;4.60;0.65;;;18.90;94.80;;;;;;5076103;28;20082;-80
2022/06/13 13:31:43;;;;;;;10.20;1.20;;;19.10;95.70;;;;;;5054175;28;20044;-80
2022/06/13 13:34:33;;;;;;;10.70;4.32;;;19.20;94.60;;;;;;5070821;28;20070;-80
2022/06/13 13:37:19;;;;;;;2.70;0.43;;;19.10;92.30;;;;;;5077331;28;20051;-80
2022/06/13 13:40:08;;;;;;;60.80;36.45;;;18.90;91.30;;;;;;5066606;28;20048;-80
2022/06/13 13:42:52;;;;;;;195.75;137.30;;;18.80;92.80;;;;;;5082740;28;20093;-80
2022/06/13 13:45:40;;;;;;;5.10;2.22;;;18.60;94.00;;;;;;5078823;28;20048;-80
2022/06/13 13:48:16;;;;;;;11.10;7.80;;;18.50;95.30;;;;;;5080531;28;20127;-80
2022/06/13 13:50:58;;;;;;;3.55;0.30;;;18.40;96.60;;;;;;5078988;28;20117;-80